Ever Ursula — 3FCB9 — position and weather

sailwx.info

Track history (hours):
 
Tides and Currents Weather Stations Pressure Air Temp Water Temp Dewpoint Dewpoint Depression Visibility Wind Speed Wind Dir Waves Ship Positions

Ever Ursula

Last reported at 2017-Jan-07 21:06 UTC. Time now 2017-Jan-17 17:13 UTC.
Position N 38°36' E 122°13'.
Warning: this ship's position is 9 days out of date.

Type: Ship (hazmat cat D). MMSI: 357737000.

Date/timePositionNaut miles runAvg speedWind from/ knotsBaromVisibWave heightAir tempDewpointWater temp
2017-Jan-07 21:06N 38°36' E 122°13'713.4
2017-Jan-07 20:33N 38°39' E 122°05'1312.8
2017-Jan-07 19:34N 38°49' E 121°55'9 0.7
2017-Jan-07 07:27N 38°58' E 121°57'1011.3
2017-Jan-07 06:33N 38°48' E 121°55'10 9.6
2017-Jan-07 05:34N 38°39' E 121°52'2 2.2
2017-Jan-07 04:34N 38°39' E 121°49'1313.1
2017-Jan-07 03:33N 38°28' E 121°40'1515.1
2017-Jan-07 02:33N 38°28' E 121°20'1514.3
2017-Jan-07 01:29N 38°30' E 121°01'1111.6
2017-Jan-07 00:33N 38°34' E 120°48'1312.5
2017-Jan-06 23:33N 38°36' E 120°32'  
2017-Jan-03 23:17N 38°48' E 118°59'3014.2
2017-Jan-03 21:11N 38°45' E 119°38'914.7
2017-Jan-03 20:33N 38°44' E 119°49'1515.0
2017-Jan-03 19:33N 38°42' E 120°08'1815.1
2017-Jan-03 18:23N 38°39' E 120°31'1213.8
2017-Jan-03 17:30N 38°37' E 120°46'1111.8
2017-Jan-03 16:33N 38°34' E 120°60'1312.7
2017-Jan-03 15:33N 38°28' E 121°14'1413.5
2017-Jan-03 14:33N 38°21' E 121°29'  
Track history (hours):
 
Tides and Currents Weather Stations Pressure Air Temp Water Temp Dewpoint Dewpoint Depression Visibility Wind Speed Wind Dir Waves Ship Positions

Ever Ursula

Last reported at 2017-Jan-07 21:06 UTC. Time now 2017-Jan-17 17:13 UTC.
Position N 38°36' E 122°13'.
Warning: this ship's position is 9 days out of date.

Type: Ship (hazmat cat D). MMSI: 357737000.

Date/timePositionNaut miles runAvg speedWind from/ knotsBaromVisibWave heightAir tempDewpointWater temp
2017-Jan-07 21:06N 38°36' E 122°13'713.4
2017-Jan-07 20:33N 38°39' E 122°05'1312.8
2017-Jan-07 19:34N 38°49' E 121°55'9 0.7
2017-Jan-07 07:27N 38°58' E 121°57'1011.3
2017-Jan-07 06:33N 38°48' E 121°55'10 9.6
2017-Jan-07 05:34N 38°39' E 121°52'2 2.2
2017-Jan-07 04:34N 38°39' E 121°49'1313.1
2017-Jan-07 03:33N 38°28' E 121°40'1515.1
2017-Jan-07 02:33N 38°28' E 121°20'1514.3
2017-Jan-07 01:29N 38°30' E 121°01'1111.6
2017-Jan-07 00:33N 38°34' E 120°48'1312.5
2017-Jan-06 23:33N 38°36' E 120°32'  
2017-Jan-03 23:17N 38°48' E 118°59'3014.2
2017-Jan-03 21:11N 38°45' E 119°38'914.7
2017-Jan-03 20:33N 38°44' E 119°49'1515.0
2017-Jan-03 19:33N 38°42' E 120°08'1815.1
2017-Jan-03 18:23N 38°39' E 120°31'1213.8
2017-Jan-03 17:30N 38°37' E 120°46'1111.8
2017-Jan-03 16:33N 38°34' E 120°60'1312.7
2017-Jan-03 15:33N 38°28' E 121°14'1413.5
2017-Jan-03 14:33N 38°21' E 121°29'  

Dump ship's entire track history